sensor_id;sensor_type;location;lat;lon;timestamp;P1;durP1;ratioP1;P2;durP2;ratioP2
63087;SDS011;49173;43.164;27.786;2022-09-13T00:01:41;2.05;;;1.30;;
63087;SDS011;49173;43.164;27.786;2022-09-13T00:04:07;8.75;;;1.55;;
63087;SDS011;49173;43.164;27.786;2022-09-13T00:06:33;2.83;;;1.42;;
63087;SDS011;49173;43.164;27.786;2022-09-13T00:08:59;5.15;;;1.55;;
63087;SDS011;49173;43.164;27.786;2022-09-13T00:11:26;3.88;;;1.30;;
63087;SDS011;49173;43.164;27.786;2022-09-13T00:13:53;6.47;;;1.83;;
63087;SDS011;49173;43.164;27.786;2022-09-13T00:16:22;3.33;;;1.60;;
63087;SDS011;49173;43.164;27.786;2022-09-13T00:18:50;2.78;;;1.30;;
63087;SDS011;49173;43.164;27.786;2022-09-13T00:21:17;4.50;;;1.60;;
63087;SDS011;49173;43.164;27.786;2022-09-13T00:23:45;2.10;;;1.50;;
63087;SDS011;49173;43.164;27.786;2022-09-13T00:26:15;3.45;;;1.60;;
63087;SDS011;49173;43.164;27.786;2022-09-13T00:28:43;4.55;;;1.73;;
63087;SDS011;49173;43.164;27.786;2022-09-13T00:31:11;3.58;;;1.77;;
63087;SDS011;49173;43.164;27.786;2022-09-13T00:33:37;3.70;;;1.90;;
63087;SDS011;49173;43.164;27.786;2022-09-13T00:36:07;5.97;;;1.80;;
63087;SDS011;49173;43.164;27.786;2022-09-13T00:38:35;4.63;;;1.50;;
63087;SDS011;49173;43.164;27.786;2022-09-13T00:41:03;7.18;;;1.80;;
63087;SDS011;49173;43.164;27.786;2022-09-13T00:46:22;3.15;;;1.50;;
63087;SDS011;49173;43.164;27.786;2022-09-13T00:51:50;4.22;;;1.38;;
63087;SDS011;49173;43.164;27.786;2022-09-13T00:54:20;4.25;;;1.67;;
63087;SDS011;49173;43.164;27.786;2022-09-13T00:56:49;2.80;;;1.50;;
63087;SDS011;49173;43.164;27.786;2022-09-13T00:59:36;4.93;;;1.83;;
63087;SDS011;49173;43.164;27.786;2022-09-13T01:02:07;3.40;;;1.58;;
63087;SDS011;49173;43.164;27.786;2022-09-13T01:04:33;5.82;;;1.50;;
63087;SDS011;49173;43.164;27.786;2022-09-13T01:07:07;2.92;;;1.50;;
63087;SDS011;49173;43.164;27.786;2022-09-13T01:09:37;3.42;;;1.63;;
63087;SDS011;49173;43.164;27.786;2022-09-13T01:14:39;2.22;;;1.52;;
63087;SDS011;49173;43.164;27.786;2022-09-13T01:17:06;3.95;;;1.40;;
63087;SDS011;49173;43.164;27.786;2022-09-13T01:19:32;2.47;;;1.40;;
63087;SDS011;49173;43.164;27.786;2022-09-13T01:44:11;2.95;;;1.30;;
63087;SDS011;49173;43.164;27.786;2022-09-13T01:47:05;4.35;;;1.40;;
63087;SDS011;49173;43.164;27.786;2022-09-13T01:53:10;2.90;;;1.30;;
63087;SDS011;49173;43.164;27.786;2022-09-13T01:56:02;6.72;;;1.45;;
63087;SDS011;49173;43.164;27.786;2022-09-13T01:59:32;2.78;;;1.42;;
63087;SDS011;49173;43.164;27.786;2022-09-13T02:02:01;3.03;;;1.30;;
63087;SDS011;49173;43.164;27.786;2022-09-13T02:04:37;3.40;;;1.40;;
63087;SDS011;49173;43.164;27.786;2022-09-13T02:07:15;4.55;;;1.10;;
63087;SDS011;49173;43.164;27.786;2022-09-13T02:09:48;3.95;;;1.10;;
63087;SDS011;49173;43.164;27.786;2022-09-13T02:12:22;4.03;;;1.17;;
63087;SDS011;49173;43.164;27.786;2022-09-13T02:15:02;4.07;;;1.08;;
63087;SDS011;49173;43.164;27.786;2022-09-13T02:17:44;2.45;;;1.02;;
63087;SDS011;49173;43.164;27.786;2022-09-13T02:20:22;1.40;;;0.90;;
63087;SDS011;49173;43.164;27.786;2022-09-13T02:22:56;2.92;;;0.90;;
63087;SDS011;49173;43.164;27.786;2022-09-13T02:25:25;2.15;;;1.13;;
63087;SDS011;49173;43.164;27.786;2022-09-13T02:27:54;3.70;;;1.20;;
63087;SDS011;49173;43.164;27.786;2022-09-13T02:30:26;2.45;;;0.95;;
63087;SDS011;49173;43.164;27.786;2022-09-13T02:32:56;1.60;;;0.80;;
63087;SDS011;49173;43.164;27.786;2022-09-13T02:38:26;5.45;;;1.20;;
63087;SDS011;49173;43.164;27.786;2022-09-13T02:40:58;1.50;;;0.90;;
63087;SDS011;49173;43.164;27.786;2022-09-13T02:43:34;3.58;;;1.10;;
63087;SDS011;49173;43.164;27.786;2022-09-13T02:48:57;3.13;;;1.10;;
63087;SDS011;49173;43.164;27.786;2022-09-13T02:57:30;1.60;;;1.00;;
63087;SDS011;49173;43.164;27.786;2022-09-13T03:00:06;2.33;;;1.00;;
63087;SDS011;49173;43.164;27.786;2022-09-13T03:02:32;2.05;;;1.02;;
63087;SDS011;49173;43.164;27.786;2022-09-13T03:05:00;2.67;;;1.10;;
63087;SDS011;49173;43.164;27.786;2022-09-13T03:07:26;4.72;;;1.20;;
63087;SDS011;49173;43.164;27.786;2022-09-13T03:09:53;2.00;;;1.10;;
63087;SDS011;49173;43.164;27.786;2022-09-13T03:24:23;2.20;;;1.25;;
63087;SDS011;49173;43.164;27.786;2022-09-13T03:27:10;2.13;;;1.20;;
63087;SDS011;49173;43.164;27.786;2022-09-13T03:29:45;3.33;;;1.10;;
63087;SDS011;49173;43.164;27.786;2022-09-13T03:38:00;4.07;;;1.30;;
63087;SDS011;49173;43.164;27.786;2022-09-13T03:43:02;2.70;;;1.45;;
63087;SDS011;49173;43.164;27.786;2022-09-13T03:45:39;2.00;;;1.20;;
63087;SDS011;49173;43.164;27.786;2022-09-13T03:48:09;4.72;;;1.20;;
63087;SDS011;49173;43.164;27.786;2022-09-13T03:50:37;2.50;;;1.30;;
63087;SDS011;49173;43.164;27.786;2022-09-13T03:53:11;5.60;;;1.27;;
63087;SDS011;49173;43.164;27.786;2022-09-13T03:55:43;2.50;;;1.38;;
63087;SDS011;49173;43.164;27.786;2022-09-13T03:58:10;2.75;;;1.30;;
63087;SDS011;49173;43.164;27.786;2022-09-13T04:00:38;2.38;;;1.30;;
63087;SDS011;49173;43.164;27.786;2022-09-13T04:03:05;2.00;;;1.13;;
63087;SDS011;49173;43.164;27.786;2022-09-13T04:05:32;2.97;;;1.25;;
63087;SDS011;49173;43.164;27.786;2022-09-13T04:08:02;2.38;;;1.17;;
63087;SDS011;49173;43.164;27.786;2022-09-13T04:10:32;3.05;;;1.23;;
63087;SDS011;49173;43.164;27.786;2022-09-13T04:12:59;3.42;;;1.30;;
63087;SDS011;49173;43.164;27.786;2022-09-13T04:15:30;3.17;;;1.33;;
63087;SDS011;49173;43.164;27.786;2022-09-13T04:17:57;14.90;;;2.15;;
63087;SDS011;49173;43.164;27.786;2022-09-13T04:20:22;8.88;;;1.60;;
63087;SDS011;49173;43.164;27.786;2022-09-13T04:22:50;7.53;;;1.52;;
63087;SDS011;49173;43.164;27.786;2022-09-13T04:25:17;6.13;;;1.45;;
63087;SDS011;49173;43.164;27.786;2022-09-13T04:27:43;3.35;;;1.33;;
63087;SDS011;49173;43.164;27.786;2022-09-13T04:30:09;2.78;;;1.30;;
63087;SDS011;49173;43.164;27.786;2022-09-13T04:32:35;2.30;;;1.30;;
63087;SDS011;49173;43.164;27.786;2022-09-13T04:35:01;5.82;;;1.40;;
63087;SDS011;49173;43.164;27.786;2022-09-13T04:37:27;2.40;;;1.08;;
63087;SDS011;49173;43.164;27.786;2022-09-13T04:39:53;2.40;;;1.55;;
63087;SDS011;49173;43.164;27.786;2022-09-13T04:42:19;4.60;;;1.70;;
63087;SDS011;49173;43.164;27.786;2022-09-13T04:44:45;3.25;;;1.90;;
63087;SDS011;49173;43.164;27.786;2022-09-13T04:47:14;3.55;;;2.22;;
63087;SDS011;49173;43.164;27.786;2022-09-13T04:49:40;4.63;;;2.88;;
63087;SDS011;49173;43.164;27.786;2022-09-13T04:52:06;11.27;;;3.72;;
63087;SDS011;49173;43.164;27.786;2022-09-13T04:54:32;336.98;;;21.60;;
63087;SDS011;49173;43.164;27.786;2022-09-13T04:56:58;30.60;;;4.65;;
63087;SDS011;49173;43.164;27.786;2022-09-13T04:59:24;10.93;;;4.38;;
63087;SDS011;49173;43.164;27.786;2022-09-13T05:01:49;9.93;;;3.78;;
63087;SDS011;49173;43.164;27.786;2022-09-13T05:04:15;7.72;;;4.05;;
63087;SDS011;49173;43.164;27.786;2022-09-13T05:06:41;8.68;;;3.45;;
63087;SDS011;49173;43.164;27.786;2022-09-13T05:09:09;5.30;;;3.08;;
63087;SDS011;49173;43.164;27.786;2022-09-13T05:11:37;7.45;;;2.72;;
63087;SDS011;49173;43.164;27.786;2022-09-13T05:14:03;5.13;;;2.08;;
63087;SDS011;49173;43.164;27.786;2022-09-13T05:16:31;5.20;;;2.20;;
63087;SDS011;49173;43.164;27.786;2022-09-13T05:18:58;4.90;;;2.13;;
63087;SDS011;49173;43.164;27.786;2022-09-13T05:21:24;4.32;;;2.08;;
63087;SDS011;49173;43.164;27.786;2022-09-13T05:23:52;4.10;;;1.98;;
63087;SDS011;49173;43.164;27.786;2022-09-13T05:26:20;3.83;;;1.83;;
63087;SDS011;49173;43.164;27.786;2022-09-13T05:28:47;4.07;;;1.90;;
63087;SDS011;49173;43.164;27.786;2022-09-13T05:31:17;2.78;;;1.80;;
63087;SDS011;49173;43.164;27.786;2022-09-13T05:33:45;3.47;;;2.13;;
63087;SDS011;49173;43.164;27.786;2022-09-13T05:36:13;3.65;;;2.17;;
63087;SDS011;49173;43.164;27.786;2022-09-13T05:38:39;5.60;;;2.72;;
63087;SDS011;49173;43.164;27.786;2022-09-13T05:41:05;3.42;;;1.90;;
63087;SDS011;49173;43.164;27.786;2022-09-13T05:43:32;3.15;;;1.80;;
63087;SDS011;49173;43.164;27.786;2022-09-13T05:46:03;2.90;;;1.60;;
63087;SDS011;49173;43.164;27.786;2022-09-13T05:48:31;5.55;;;2.03;;
63087;SDS011;49173;43.164;27.786;2022-09-13T05:53:31;5.47;;;1.90;;
63087;SDS011;49173;43.164;27.786;2022-09-13T05:55:57;3.45;;;1.70;;
63087;SDS011;49173;43.164;27.786;2022-09-13T05:58:23;5.30;;;2.33;;
63087;SDS011;49173;43.164;27.786;2022-09-13T06:00:53;4.20;;;2.78;;
63087;SDS011;49173;43.164;27.786;2022-09-13T06:03:20;7.00;;;3.83;;
63087;SDS011;49173;43.164;27.786;2022-09-13T06:05:47;7.38;;;3.95;;
63087;SDS011;49173;43.164;27.786;2022-09-13T06:08:13;5.40;;;3.00;;
63087;SDS011;49173;43.164;27.786;2022-09-13T06:10:39;4.32;;;2.83;;
63087;SDS011;49173;43.164;27.786;2022-09-13T06:13:05;7.32;;;3.40;;
63087;SDS011;49173;43.164;27.786;2022-09-13T06:15:33;6.57;;;3.15;;
63087;SDS011;49173;43.164;27.786;2022-09-13T06:18:06;6.35;;;3.78;;
63087;SDS011;49173;43.164;27.786;2022-09-13T06:20:32;9.63;;;4.40;;
63087;SDS011;49173;43.164;27.786;2022-09-13T06:22:57;7.25;;;4.35;;
63087;SDS011;49173;43.164;27.786;2022-09-13T06:25:23;8.18;;;5.13;;
63087;SDS011;49173;43.164;27.786;2022-09-13T06:27:49;13.25;;;7.90;;
63087;SDS011;49173;43.164;27.786;2022-09-13T06:30:15;15.27;;;7.97;;
63087;SDS011;49173;43.164;27.786;2022-09-13T06:32:41;14.88;;;8.40;;
63087;SDS011;49173;43.164;27.786;2022-09-13T06:35:07;10.43;;;7.07;;
63087;SDS011;49173;43.164;27.786;2022-09-13T06:37:33;8.07;;;5.70;;
63087;SDS011;49173;43.164;27.786;2022-09-13T06:39:58;10.45;;;5.82;;
63087;SDS011;49173;43.164;27.786;2022-09-13T06:42:24;8.45;;;5.80;;
63087;SDS011;49173;43.164;27.786;2022-09-13T06:44:50;13.63;;;7.47;;
63087;SDS011;49173;43.164;27.786;2022-09-13T06:47:15;13.65;;;8.48;;
63087;SDS011;49173;43.164;27.786;2022-09-13T06:49:41;10.20;;;7.10;;
63087;SDS011;49173;43.164;27.786;2022-09-13T06:52:07;10.40;;;6.10;;
63087;SDS011;49173;43.164;27.786;2022-09-13T06:54:33;9.98;;;4.60;;
63087;SDS011;49173;43.164;27.786;2022-09-13T06:56:58;13.23;;;4.15;;
63087;SDS011;49173;43.164;27.786;2022-09-13T06:59:27;11.35;;;4.70;;
63087;SDS011;49173;43.164;27.786;2022-09-13T07:01:53;9.45;;;4.82;;
63087;SDS011;49173;43.164;27.786;2022-09-13T07:04:18;9.15;;;4.65;;
63087;SDS011;49173;43.164;27.786;2022-09-13T07:06:45;8.20;;;3.80;;
63087;SDS011;49173;43.164;27.786;2022-09-13T07:09:14;8.48;;;5.20;;
63087;SDS011;49173;43.164;27.786;2022-09-13T07:11:42;12.23;;;4.90;;
63087;SDS011;49173;43.164;27.786;2022-09-13T07:14:16;12.88;;;6.45;;
63087;SDS011;49173;43.164;27.786;2022-09-13T07:16:45;8.40;;;5.28;;
63087;SDS011;49173;43.164;27.786;2022-09-13T07:19:20;10.48;;;5.32;;
63087;SDS011;49173;43.164;27.786;2022-09-13T07:21:54;10.90;;;5.68;;
63087;SDS011;49173;43.164;27.786;2022-09-13T07:24:21;10.20;;;5.13;;
63087;SDS011;49173;43.164;27.786;2022-09-13T07:26:47;7.60;;;4.20;;
63087;SDS011;49173;43.164;27.786;2022-09-13T07:29:16;9.60;;;3.85;;
63087;SDS011;49173;43.164;27.786;2022-09-13T07:31:45;10.43;;;3.50;;
63087;SDS011;49173;43.164;27.786;2022-09-13T07:34:16;6.95;;;3.30;;
63087;SDS011;49173;43.164;27.786;2022-09-13T07:36:45;8.82;;;3.15;;
63087;SDS011;49173;43.164;27.786;2022-09-13T07:39:14;7.63;;;2.45;;
63087;SDS011;49173;43.164;27.786;2022-09-13T07:41:41;6.00;;;1.67;;
63087;SDS011;49173;43.164;27.786;2022-09-13T07:44:11;3.40;;;1.35;;
63087;SDS011;49173;43.164;27.786;2022-09-13T07:49:08;3.97;;;1.80;;
63087;SDS011;49173;43.164;27.786;2022-09-13T07:51:36;3.08;;;1.90;;
63087;SDS011;49173;43.164;27.786;2022-09-13T07:54:05;8.88;;;1.90;;
63087;SDS011;49173;43.164;27.786;2022-09-13T07:56:36;4.32;;;1.42;;
63087;SDS011;49173;43.164;27.786;2022-09-13T07:59:05;3.55;;;1.20;;
63087;SDS011;49173;43.164;27.786;2022-09-13T08:01:33;4.47;;;1.60;;
63087;SDS011;49173;43.164;27.786;2022-09-13T08:04:02;5.55;;;1.65;;
63087;SDS011;49173;43.164;27.786;2022-09-13T08:06:30;6.70;;;1.73;;
63087;SDS011;49173;43.164;27.786;2022-09-13T08:08:57;3.95;;;1.40;;
63087;SDS011;49173;43.164;27.786;2022-09-13T08:11:25;3.40;;;1.58;;
63087;SDS011;49173;43.164;27.786;2022-09-13T08:13:56;3.28;;;1.52;;
63087;SDS011;49173;43.164;27.786;2022-09-13T08:16:23;2.90;;;1.40;;
63087;SDS011;49173;43.164;27.786;2022-09-13T08:18:52;2.28;;;1.40;;
63087;SDS011;49173;43.164;27.786;2022-09-13T08:21:20;4.57;;;1.55;;
63087;SDS011;49173;43.164;27.786;2022-09-13T08:23:47;6.82;;;1.48;;
63087;SDS011;49173;43.164;27.786;2022-09-13T08:26:13;2.53;;;1.50;;
63087;SDS011;49173;43.164;27.786;2022-09-13T08:28:39;4.10;;;1.50;;
63087;SDS011;49173;43.164;27.786;2022-09-13T08:31:10;3.40;;;1.48;;
63087;SDS011;49173;43.164;27.786;2022-09-13T08:33:41;2.13;;;1.20;;
63087;SDS011;49173;43.164;27.786;2022-09-13T08:36:11;3.20;;;1.50;;
63087;SDS011;49173;43.164;27.786;2022-09-13T08:38:37;2.75;;;1.55;;
63087;SDS011;49173;43.164;27.786;2022-09-13T08:44:28;2.97;;;1.40;;
63087;SDS011;49173;43.164;27.786;2022-09-13T08:47:01;6.40;;;1.90;;
63087;SDS011;49173;43.164;27.786;2022-09-13T08:49:48;2.72;;;1.40;;
63087;SDS011;49173;43.164;27.786;2022-09-13T08:52:27;10.77;;;1.60;;
63087;SDS011;49173;43.164;27.786;2022-09-13T08:54:57;6.53;;;1.50;;
63087;SDS011;49173;43.164;27.786;2022-09-13T09:00:18;4.68;;;1.50;;
63087;SDS011;49173;43.164;27.786;2022-09-13T09:05:39;4.43;;;1.90;;
63087;SDS011;49173;43.164;27.786;2022-09-13T09:08:19;3.38;;;1.42;;
63087;SDS011;49173;43.164;27.786;2022-09-13T09:10:53;2.15;;;1.20;;
63087;SDS011;49173;43.164;27.786;2022-09-13T09:15:55;4.45;;;1.45;;
63087;SDS011;49173;43.164;27.786;2022-09-13T09:18:31;2.35;;;1.42;;
63087;SDS011;49173;43.164;27.786;2022-09-13T09:21:01;2.60;;;1.30;;
63087;SDS011;49173;43.164;27.786;2022-09-13T09:26:19;4.30;;;1.58;;
63087;SDS011;49173;43.164;27.786;2022-09-13T09:28:54;3.65;;;1.40;;
63087;SDS011;49173;43.164;27.786;2022-09-13T09:37:33;3.65;;;1.40;;
63087;SDS011;49173;43.164;27.786;2022-09-13T09:40:03;4.70;;;1.33;;
63087;SDS011;49173;43.164;27.786;2022-09-13T09:42:52;4.88;;;1.40;;
63087;SDS011;49173;43.164;27.786;2022-09-13T09:47:51;2.92;;;1.20;;
63087;SDS011;49173;43.164;27.786;2022-09-13T09:50:20;3.13;;;1.55;;
63087;SDS011;49173;43.164;27.786;2022-09-13T09:52:56;3.33;;;1.40;;
63087;SDS011;49173;43.164;27.786;2022-09-13T09:55:28;2.15;;;1.30;;
63087;SDS011;49173;43.164;27.786;2022-09-13T10:00:36;3.88;;;1.50;;
63087;SDS011;49173;43.164;27.786;2022-09-13T10:03:24;5.78;;;2.05;;
63087;SDS011;49173;43.164;27.786;2022-09-13T10:08:33;8.25;;;1.40;;
63087;SDS011;49173;43.164;27.786;2022-09-13T10:11:02;2.05;;;1.27;;
63087;SDS011;49173;43.164;27.786;2022-09-13T10:13:29;4.70;;;1.20;;
63087;SDS011;49173;43.164;27.786;2022-09-13T10:18:46;3.97;;;1.27;;
63087;SDS011;49173;43.164;27.786;2022-09-13T10:21:23;4.90;;;1.42;;
63087;SDS011;49173;43.164;27.786;2022-09-13T10:23:50;2.95;;;1.15;;
63087;SDS011;49173;43.164;27.786;2022-09-13T10:26:16;3.58;;;1.40;;
63087;SDS011;49173;43.164;27.786;2022-09-13T10:31:13;3.67;;;1.35;;
63087;SDS011;49173;43.164;27.786;2022-09-13T10:33:42;3.85;;;1.50;;
63087;SDS011;49173;43.164;27.786;2022-09-13T10:36:20;3.08;;;1.10;;
63087;SDS011;49173;43.164;27.786;2022-09-13T10:38:58;3.17;;;1.40;;
63087;SDS011;49173;43.164;27.786;2022-09-13T10:41:27;3.92;;;1.63;;
63087;SDS011;49173;43.164;27.786;2022-09-13T10:43:59;3.53;;;1.55;;
63087;SDS011;49173;43.164;27.786;2022-09-13T10:46:28;3.13;;;1.30;;
63087;SDS011;49173;43.164;27.786;2022-09-13T10:48:56;4.80;;;1.30;;
63087;SDS011;49173;43.164;27.786;2022-09-13T10:56:50;4.03;;;1.20;;
63087;SDS011;49173;43.164;27.786;2022-09-13T11:04:49;2.33;;;1.20;;
63087;SDS011;49173;43.164;27.786;2022-09-13T11:15:18;3.97;;;1.10;;
63087;SDS011;49173;43.164;27.786;2022-09-13T11:26:26;2.47;;;1.20;;
63087;SDS011;49173;43.164;27.786;2022-09-13T11:29:04;2.40;;;1.20;;
63087;SDS011;49173;43.164;27.786;2022-09-13T11:37:31;4.30;;;1.20;;
63087;SDS011;49173;43.164;27.786;2022-09-13T11:45:27;1.92;;;1.10;;
63087;SDS011;49173;43.164;27.786;2022-09-13T11:53:32;4.70;;;1.20;;
63087;SDS011;49173;43.164;27.786;2022-09-13T11:56:11;2.83;;;1.10;;
63087;SDS011;49173;43.164;27.786;2022-09-13T11:58:59;1.77;;;1.00;;
63087;SDS011;49173;43.164;27.786;2022-09-13T12:01:40;7.90;;;1.33;;
63087;SDS011;49173;43.164;27.786;2022-09-13T12:04:18;2.72;;;1.15;;
63087;SDS011;49173;43.164;27.786;2022-09-13T12:06:52;3.03;;;1.20;;
63087;SDS011;49173;43.164;27.786;2022-09-13T12:09:27;2.15;;;1.20;;
63087;SDS011;49173;43.164;27.786;2022-09-13T12:14:44;3.40;;;1.35;;
63087;SDS011;49173;43.164;27.786;2022-09-13T12:17:21;4.82;;;1.20;;
63087;SDS011;49173;43.164;27.786;2022-09-13T12:19:49;7.10;;;1.42;;
63087;SDS011;49173;43.164;27.786;2022-09-13T12:22:19;1.90;;;0.98;;
63087;SDS011;49173;43.164;27.786;2022-09-13T12:24:55;2.65;;;1.17;;
63087;SDS011;49173;43.164;27.786;2022-09-13T12:32:29;7.07;;;1.52;;
63087;SDS011;49173;43.164;27.786;2022-09-13T12:35:03;5.63;;;1.35;;
63087;SDS011;49173;43.164;27.786;2022-09-13T12:50:50;5.38;;;1.38;;
63087;SDS011;49173;43.164;27.786;2022-09-13T13:02:00;3.92;;;1.30;;
63087;SDS011;49173;43.164;27.786;2022-09-13T13:04:44;2.30;;;1.40;;
63087;SDS011;49173;43.164;27.786;2022-09-13T13:07:20;4.97;;;1.48;;
63087;SDS011;49173;43.164;27.786;2022-09-13T13:09:48;5.82;;;1.52;;
63087;SDS011;49173;43.164;27.786;2022-09-13T13:12:26;4.03;;;1.60;;
63087;SDS011;49173;43.164;27.786;2022-09-13T13:15:11;3.95;;;1.70;;
63087;SDS011;49173;43.164;27.786;2022-09-13T13:17:56;3.15;;;1.63;;
63087;SDS011;49173;43.164;27.786;2022-09-13T13:23:23;2.25;;;1.30;;
63087;SDS011;49173;43.164;27.786;2022-09-13T13:25:59;3.13;;;1.38;;
63087;SDS011;49173;43.164;27.786;2022-09-13T13:34:24;3.88;;;1.77;;
63087;SDS011;49173;43.164;27.786;2022-09-13T13:36:49;2.17;;;1.40;;
63087;SDS011;49173;43.164;27.786;2022-09-13T13:57:20;2.70;;;1.50;;
63087;SDS011;49173;43.164;27.786;2022-09-13T13:59:54;5.85;;;1.63;;
63087;SDS011;49173;43.164;27.786;2022-09-13T14:02:35;10.40;;;1.50;;
63087;SDS011;49173;43.164;27.786;2022-09-13T14:07:57;5.53;;;2.05;;
63087;SDS011;49173;43.164;27.786;2022-09-13T14:18:48;4.40;;;1.40;;
63087;SDS011;49173;43.164;27.786;2022-09-13T14:21:31;2.20;;;1.35;;
63087;SDS011;49173;43.164;27.786;2022-09-13T14:26:51;3.08;;;1.40;;
63087;SDS011;49173;43.164;27.786;2022-09-13T14:29:20;10.13;;;1.50;;
63087;SDS011;49173;43.164;27.786;2022-09-13T14:31:47;4.72;;;1.45;;
63087;SDS011;49173;43.164;27.786;2022-09-13T14:34:28;3.03;;;1.42;;
63087;SDS011;49173;43.164;27.786;2022-09-13T14:37:01;4.53;;;1.63;;
63087;SDS011;49173;43.164;27.786;2022-09-13T14:39:29;3.63;;;1.50;;
63087;SDS011;49173;43.164;27.786;2022-09-13T14:42:00;7.28;;;1.60;;
63087;SDS011;49173;43.164;27.786;2022-09-13T14:44:35;2.83;;;1.30;;
63087;SDS011;49173;43.164;27.786;2022-09-13T14:47:11;5.05;;;1.55;;
63087;SDS011;49173;43.164;27.786;2022-09-13T14:49:45;2.67;;;1.60;;
63087;SDS011;49173;43.164;27.786;2022-09-13T14:52:23;6.88;;;1.77;;
63087;SDS011;49173;43.164;27.786;2022-09-13T14:54:59;4.05;;;1.52;;
63087;SDS011;49173;43.164;27.786;2022-09-13T14:57:30;2.92;;;1.42;;
63087;SDS011;49173;43.164;27.786;2022-09-13T15:00:05;4.50;;;1.35;;
63087;SDS011;49173;43.164;27.786;2022-09-13T15:02:43;4.43;;;1.40;;
63087;SDS011;49173;43.164;27.786;2022-09-13T15:05:16;8.52;;;1.60;;
63087;SDS011;49173;43.164;27.786;2022-09-13T15:07:44;2.85;;;1.50;;
63087;SDS011;49173;43.164;27.786;2022-09-13T15:18:29;5.53;;;1.48;;
63087;SDS011;49173;43.164;27.786;2022-09-13T15:26:04;4.18;;;1.88;;
63087;SDS011;49173;43.164;27.786;2022-09-13T15:31:05;3.45;;;1.70;;
63087;SDS011;49173;43.164;27.786;2022-09-13T15:33:33;5.15;;;1.85;;
63087;SDS011;49173;43.164;27.786;2022-09-13T15:36:13;4.25;;;1.75;;
63087;SDS011;49173;43.164;27.786;2022-09-13T15:38:58;5.18;;;1.90;;
63087;SDS011;49173;43.164;27.786;2022-09-13T15:41:30;4.95;;;1.42;;
63087;SDS011;49173;43.164;27.786;2022-09-13T15:43:58;5.43;;;1.63;;
63087;SDS011;49173;43.164;27.786;2022-09-13T15:46:25;4.03;;;1.75;;
63087;SDS011;49173;43.164;27.786;2022-09-13T15:48:58;4.93;;;2.00;;
63087;SDS011;49173;43.164;27.786;2022-09-13T15:51:27;2.80;;;1.20;;
63087;SDS011;49173;43.164;27.786;2022-09-13T15:53:53;4.90;;;1.60;;
63087;SDS011;49173;43.164;27.786;2022-09-13T15:56:20;6.55;;;1.60;;
63087;SDS011;49173;43.164;27.786;2022-09-13T15:58:51;4.93;;;1.60;;
63087;SDS011;49173;43.164;27.786;2022-09-13T16:01:17;8.55;;;1.65;;
63087;SDS011;49173;43.164;27.786;2022-09-13T16:03:43;3.53;;;1.50;;
63087;SDS011;49173;43.164;27.786;2022-09-13T16:06:09;3.72;;;1.48;;
63087;SDS011;49173;43.164;27.786;2022-09-13T16:08:35;3.25;;;1.88;;
63087;SDS011;49173;43.164;27.786;2022-09-13T16:11:01;11.75;;;5.47;;
63087;SDS011;49173;43.164;27.786;2022-09-13T16:13:28;6.20;;;3.42;;
63087;SDS011;49173;43.164;27.786;2022-09-13T16:16:01;6.32;;;3.33;;
63087;SDS011;49173;43.164;27.786;2022-09-13T16:18:31;5.20;;;2.95;;
63087;SDS011;49173;43.164;27.786;2022-09-13T16:20:57;6.43;;;2.30;;
63087;SDS011;49173;43.164;27.786;2022-09-13T16:23:23;2.88;;;1.92;;
63087;SDS011;49173;43.164;27.786;2022-09-13T16:25:50;3.10;;;2.13;;
63087;SDS011;49173;43.164;27.786;2022-09-13T16:28:20;5.38;;;2.42;;
63087;SDS011;49173;43.164;27.786;2022-09-13T16:30:46;7.65;;;2.45;;
63087;SDS011;49173;43.164;27.786;2022-09-13T16:33:12;3.75;;;2.40;;
63087;SDS011;49173;43.164;27.786;2022-09-13T16:35:38;4.22;;;2.25;;
63087;SDS011;49173;43.164;27.786;2022-09-13T16:38:04;3.60;;;2.00;;
63087;SDS011;49173;43.164;27.786;2022-09-13T16:40:29;4.93;;;2.17;;
63087;SDS011;49173;43.164;27.786;2022-09-13T16:42:55;3.70;;;1.90;;
63087;SDS011;49173;43.164;27.786;2022-09-13T16:45:21;3.10;;;1.70;;
63087;SDS011;49173;43.164;27.786;2022-09-13T16:47:48;3.50;;;2.08;;
63087;SDS011;49173;43.164;27.786;2022-09-13T16:50:14;2.97;;;1.70;;
63087;SDS011;49173;43.164;27.786;2022-09-13T16:52:41;5.93;;;1.90;;
63087;SDS011;49173;43.164;27.786;2022-09-13T16:55:07;3.50;;;1.70;;
63087;SDS011;49173;43.164;27.786;2022-09-13T16:57:34;3.50;;;1.70;;
63087;SDS011;49173;43.164;27.786;2022-09-13T17:00:00;8.90;;;1.75;;
63087;SDS011;49173;43.164;27.786;2022-09-13T17:02:28;5.32;;;1.70;;
63087;SDS011;49173;43.164;27.786;2022-09-13T17:04:54;2.85;;;1.50;;
63087;SDS011;49173;43.164;27.786;2022-09-13T17:07:27;3.90;;;1.80;;
63087;SDS011;49173;43.164;27.786;2022-09-13T17:09:54;7.28;;;1.88;;
63087;SDS011;49173;43.164;27.786;2022-09-13T17:12:21;3.83;;;1.55;;
63087;SDS011;49173;43.164;27.786;2022-09-13T17:14:46;2.38;;;1.52;;
63087;SDS011;49173;43.164;27.786;2022-09-13T17:17:15;3.85;;;1.65;;
63087;SDS011;49173;43.164;27.786;2022-09-13T17:19:42;6.63;;;1.70;;
63087;SDS011;49173;43.164;27.786;2022-09-13T17:22:09;3.03;;;1.35;;
63087;SDS011;49173;43.164;27.786;2022-09-13T17:24:36;2.60;;;1.50;;
63087;SDS011;49173;43.164;27.786;2022-09-13T17:27:03;2.78;;;1.75;;
63087;SDS011;49173;43.164;27.786;2022-09-13T17:29:31;5.07;;;1.90;;
63087;SDS011;49173;43.164;27.786;2022-09-13T17:31:58;6.03;;;1.90;;
63087;SDS011;49173;43.164;27.786;2022-09-13T17:34:25;5.00;;;1.83;;
63087;SDS011;49173;43.164;27.786;2022-09-13T17:36:52;4.40;;;1.60;;
63087;SDS011;49173;43.164;27.786;2022-09-13T17:39:19;2.35;;;1.40;;
63087;SDS011;49173;43.164;27.786;2022-09-13T17:41:45;2.80;;;1.40;;
63087;SDS011;49173;43.164;27.786;2022-09-13T17:44:12;4.22;;;1.55;;
63087;SDS011;49173;43.164;27.786;2022-09-13T17:46:39;2.08;;;1.52;;
63087;SDS011;49173;43.164;27.786;2022-09-13T17:49:05;3.00;;;1.70;;
63087;SDS011;49173;43.164;27.786;2022-09-13T17:51:31;3.22;;;1.80;;
63087;SDS011;49173;43.164;27.786;2022-09-13T17:53:59;3.50;;;1.77;;
63087;SDS011;49173;43.164;27.786;2022-09-13T17:56:28;4.10;;;1.67;;
63087;SDS011;49173;43.164;27.786;2022-09-13T17:59:06;3.72;;;1.42;;
63087;SDS011;49173;43.164;27.786;2022-09-13T18:01:33;4.05;;;1.60;;
63087;SDS011;49173;43.164;27.786;2022-09-13T18:04:00;3.08;;;1.70;;
63087;SDS011;49173;43.164;27.786;2022-09-13T18:06:26;4.50;;;1.60;;
63087;SDS011;49173;43.164;27.786;2022-09-13T18:08:51;2.50;;;1.35;;
63087;SDS011;49173;43.164;27.786;2022-09-13T18:11:19;2.58;;;1.40;;
63087;SDS011;49173;43.164;27.786;2022-09-13T18:13:45;2.35;;;1.50;;
63087;SDS011;49173;43.164;27.786;2022-09-13T18:16:21;2.42;;;1.58;;
63087;SDS011;49173;43.164;27.786;2022-09-13T18:18:49;4.50;;;1.40;;
63087;SDS011;49173;43.164;27.786;2022-09-13T18:21:16;2.40;;;1.42;;
63087;SDS011;49173;43.164;27.786;2022-09-13T18:23:48;2.95;;;1.48;;
63087;SDS011;49173;43.164;27.786;2022-09-13T18:26:16;3.80;;;1.40;;
63087;SDS011;49173;43.164;27.786;2022-09-13T18:28:44;3.22;;;1.70;;
63087;SDS011;49173;43.164;27.786;2022-09-13T18:31:15;2.50;;;1.50;;
63087;SDS011;49173;43.164;27.786;2022-09-13T18:33:42;3.10;;;1.30;;
63087;SDS011;49173;43.164;27.786;2022-09-13T18:36:10;2.83;;;1.38;;
63087;SDS011;49173;43.164;27.786;2022-09-13T18:38:38;2.50;;;1.45;;
63087;SDS011;49173;43.164;27.786;2022-09-13T18:41:07;2.87;;;1.50;;
63087;SDS011;49173;43.164;27.786;2022-09-13T18:43:39;3.00;;;1.50;;
63087;SDS011;49173;43.164;27.786;2022-09-13T18:46:08;3.38;;;1.58;;